Time;durP1;ratioP1;P1;durP2;ratioP2;P2;SDS_P1;SDS_P2;PMS_P1;PMS_P2;Temp;Humidity;BMP_temperature;BMP_pressure;BME280_temperature;BME280_humidity;BME280_pressure;Samples;Min_cycle;Max_cycle;Signal;HPM_P1;HPM_P2
2021/12/23 00:02:06;;;;;;;22.10;13.93;;;-1.10;99.90;;;;;;4883181;29;20080;-59
2021/12/23 00:04:32;;;;;;;23.52;13.43;;;-1.10;99.90;;;;;;4866926;29;20103;-58
2021/12/23 00:06:58;;;;;;;27.55;12.82;;;-1.10;99.90;;;;;;4866373;29;20449;-57
2021/12/23 00:09:31;;;;;;;21.15;13.20;;;-1.10;99.90;;;;;;4881450;29;20060;-59
2021/12/23 00:11:57;;;;;;;19.17;13.27;;;-1.10;99.90;;;;;;4884829;29;20552;-58
2021/12/23 00:14:23;;;;;;;22.20;12.98;;;-1.10;99.90;;;;;;4882724;29;20059;-59
2021/12/23 00:17:06;;;;;;;24.50;13.73;;;-1.10;99.90;;;;;;4866985;29;20085;-58
2021/12/23 00:24:42;;;;;;;20.08;13.25;;;-1.10;99.90;;;;;;4883872;29;20045;-59
2021/12/23 00:27:08;;;;;;;20.40;13.15;;;-1.00;99.90;;;;;;4884717;29;20124;-59
2021/12/23 00:29:35;;;;;;;19.15;12.57;;;-1.00;99.90;;;;;;4884360;29;20056;-58
2021/12/23 00:32:05;;;;;;;19.52;12.95;;;-1.00;99.90;;;;;;4868682;29;20663;-59
2021/12/23 00:34:31;;;;;;;21.98;13.48;;;-1.00;99.90;;;;;;4883882;29;21154;-58
2021/12/23 00:36:59;;;;;;;21.05;13.32;;;-1.00;99.90;;;;;;4883547;29;20621;-58
2021/12/23 00:39:26;;;;;;;20.40;13.15;;;-1.00;99.90;;;;;;4883032;29;20056;-59
2021/12/23 00:41:54;;;;;;;18.25;12.80;;;-1.00;99.90;;;;;;4865191;29;20112;-59
2021/12/23 00:44:20;;;;;;;18.02;12.18;;;-1.00;99.90;;;;;;4882178;29;20503;-58
2021/12/23 00:46:46;;;;;;;21.48;13.90;;;-0.90;99.90;;;;;;4884918;29;20049;-59
2021/12/23 00:49:12;;;;;;;26.80;13.02;;;-0.90;99.90;;;;;;4886031;29;20088;-59
2021/12/23 00:51:38;;;;;;;22.40;13.23;;;-0.90;99.90;;;;;;4882675;29;20048;-59
2021/12/23 00:54:04;;;;;;;25.50;13.15;;;-0.90;99.90;;;;;;4885454;29;20084;-59
2021/12/23 00:56:36;;;;;;;20.20;13.45;;;-0.90;99.90;;;;;;4884405;29;20044;-58
2021/12/23 00:59:06;;;;;;;18.65;12.80;;;-0.90;99.90;;;;;;4884833;29;20539;-58
2021/12/23 01:01:32;;;;;;;21.30;13.65;;;-0.80;99.90;;;;;;4855247;29;20062;-57
2021/12/23 01:03:58;;;;;;;23.70;13.60;;;-0.80;99.90;;;;;;4883923;29;20053;-58
2021/12/23 01:06:24;;;;;;;20.92;14.05;;;-0.80;99.90;;;;;;4881378;29;20201;-55
2021/12/23 01:08:50;;;;;;;22.38;13.82;;;-0.80;99.90;;;;;;4881804;29;20057;-59
2021/12/23 01:11:16;;;;;;;24.27;14.10;;;-0.80;99.90;;;;;;4869962;29;20469;-59
2021/12/23 01:13:48;;;;;;;22.98;14.35;;;-0.80;99.90;;;;;;4870366;29;20087;-59
2021/12/23 01:16:25;;;;;;;20.50;13.50;;;-0.80;99.90;;;;;;4883715;29;20092;-59
2021/12/23 01:18:54;;;;;;;22.45;13.15;;;-0.80;99.90;;;;;;4869287;29;20060;-60
2021/12/23 01:21:20;;;;;;;22.58;13.45;;;-0.70;99.90;;;;;;4885861;29;20450;-59
2021/12/23 01:23:56;;;;;;;21.58;13.75;;;-0.80;99.90;;;;;;4883746;29;20653;-59
2021/12/23 01:26:23;;;;;;;23.00;12.73;;;-0.80;99.90;;;;;;4885385;29;20559;-59
2021/12/23 01:28:56;;;;;;;21.20;13.93;;;-0.70;99.90;;;;;;4871924;29;20565;-60
2021/12/23 01:31:24;;;;;;;19.67;13.23;;;-0.70;99.90;;;;;;4888382;29;20056;-59
2021/12/23 01:33:50;;;;;;;25.02;14.05;;;-0.70;99.90;;;;;;4887953;29;20033;-59
2021/12/23 01:36:16;;;;;;;28.25;14.77;;;-0.70;99.90;;;;;;4870576;29;20597;-59
2021/12/23 01:38:41;;;;;;;25.40;15.18;;;-0.70;99.90;;;;;;4885565;29;20052;-58
2021/12/23 01:41:08;;;;;;;26.60;14.13;;;-0.70;99.90;;;;;;4888448;29;20056;-59
2021/12/23 01:43:34;;;;;;;20.98;14.02;;;-0.70;99.90;;;;;;4887510;29;20051;-59
2021/12/23 01:46:00;;;;;;;24.55;14.25;;;-0.70;99.90;;;;;;4885102;29;20543;-59
2021/12/23 01:48:26;;;;;;;22.73;14.68;;;-0.70;99.90;;;;;;4870997;29;20067;-58
2021/12/23 01:50:52;;;;;;;32.08;14.57;;;-0.70;99.90;;;;;;4887646;29;20051;-59
2021/12/23 01:53:18;;;;;;;20.42;14.23;;;-0.60;99.90;;;;;;4888234;29;20047;-58
2021/12/23 01:55:44;;;;;;;23.27;15.07;;;-0.70;99.90;;;;;;4888106;29;20085;-59
2021/12/23 01:58:12;;;;;;;25.10;15.38;;;-0.60;99.90;;;;;;4887075;29;20163;-59
2021/12/23 02:00:41;;;;;;;26.77;14.80;;;-0.60;99.90;;;;;;4871158;29;20044;-59
2021/12/23 02:03:07;;;;;;;27.42;15.07;;;-0.60;99.90;;;;;;4885613;29;20127;-60
2021/12/23 02:05:33;;;;;;;24.45;15.07;;;-0.60;99.90;;;;;;4882430;29;20056;-58
2021/12/23 02:07:59;;;;;;;27.38;15.38;;;-0.60;99.90;;;;;;4886907;29;20555;-59
2021/12/23 02:10:27;;;;;;;27.02;15.57;;;-0.60;99.90;;;;;;4882388;29;20052;-59
2021/12/23 02:12:53;;;;;;;27.20;16.17;;;-0.60;99.90;;;;;;4888495;29;20120;-59
2021/12/23 02:15:19;;;;;;;23.40;15.40;;;-0.60;99.90;;;;;;4880753;29;20049;-59
2021/12/23 02:17:48;;;;;;;24.65;15.60;;;-0.60;99.90;;;;;;4887261;29;20045;-59
2021/12/23 02:20:16;;;;;;;28.63;15.57;;;-0.60;99.90;;;;;;4888130;29;20512;-59
2021/12/23 02:22:43;;;;;;;24.02;14.98;;;-0.60;99.90;;;;;;4870183;29;20044;-58
2021/12/23 02:25:11;;;;;;;24.50;15.73;;;-0.60;99.90;;;;;;4874259;29;20401;-58
2021/12/23 02:27:37;;;;;;;26.10;15.32;;;-0.60;99.90;;;;;;4887627;29;20045;-59
2021/12/23 02:30:06;;;;;;;25.02;15.15;;;-0.60;99.90;;;;;;4888045;29;20056;-58
2021/12/23 02:32:37;;;;;;;25.17;16.02;;;-0.60;99.90;;;;;;4888324;29;20112;-58
2021/12/23 02:35:04;;;;;;;23.23;16.10;;;-0.60;99.90;;;;;;4885354;29;20701;-59
2021/12/23 02:37:30;;;;;;;28.83;16.70;;;-0.60;99.90;;;;;;4868591;29;20049;-59
2021/12/23 02:39:56;;;;;;;22.27;15.45;;;-0.60;99.90;;;;;;4887736;29;20421;-59
2021/12/23 02:42:24;;;;;;;24.30;16.10;;;-0.60;99.90;;;;;;4870629;29;20056;-60
2021/12/23 02:44:53;;;;;;;25.67;15.35;;;-0.60;99.90;;;;;;4884295;29;20044;-59
2021/12/23 02:47:19;;;;;;;27.25;15.57;;;-0.60;99.90;;;;;;4873638;29;20504;-59
2021/12/23 02:49:45;;;;;;;27.83;16.33;;;-0.60;99.90;;;;;;4885631;29;20076;-59
2021/12/23 02:52:11;;;;;;;25.92;16.17;;;-0.60;99.90;;;;;;4886693;29;20196;-59
2021/12/23 02:54:36;;;;;;;25.10;16.02;;;-0.60;99.90;;;;;;4885600;29;20041;-59
2021/12/23 02:57:03;;;;;;;25.38;16.30;;;-0.60;99.90;;;;;;4873654;29;20044;-57
2021/12/23 02:59:28;;;;;;;27.40;15.45;;;-0.70;99.90;;;;;;4885418;29;20049;-59
2021/12/23 03:01:54;;;;;;;24.65;15.98;;;-0.60;99.90;;;;;;4886593;29;20059;-59
2021/12/23 03:04:21;;;;;;;25.42;16.15;;;-0.60;99.90;;;;;;4883224;29;20063;-59
2021/12/23 03:06:46;;;;;;;25.63;15.98;;;-0.60;99.90;;;;;;4870490;29;20526;-60
2021/12/23 03:09:12;;;;;;;25.38;16.25;;;-0.60;99.90;;;;;;4868169;29;20139;-59
2021/12/23 03:11:40;;;;;;;25.02;15.77;;;-0.60;99.90;;;;;;4871298;29;20104;-59
2021/12/23 03:14:07;;;;;;;27.73;16.17;;;-0.60;99.90;;;;;;4887606;29;20040;-59
2021/12/23 03:16:36;;;;;;;24.55;15.95;;;-0.60;99.90;;;;;;4883596;29;20497;-59
2021/12/23 03:19:03;;;;;;;27.85;16.13;;;-0.60;99.90;;;;;;4881436;29;20060;-59
2021/12/23 03:21:29;;;;;;;28.40;16.58;;;-0.60;99.90;;;;;;4885952;29;20107;-58
2021/12/23 03:23:55;;;;;;;27.08;16.02;;;-0.60;99.90;;;;;;4886923;29;20052;-59
2021/12/23 03:26:21;;;;;;;26.85;15.98;;;-0.60;99.90;;;;;;4871331;29;20040;-59
2021/12/23 03:28:47;;;;;;;25.70;16.20;;;-0.60;99.90;;;;;;4885903;29;20049;-59
2021/12/23 03:31:13;;;;;;;25.02;15.85;;;-0.60;99.90;;;;;;4854585;29;20519;-59
2021/12/23 03:33:38;;;;;;;24.83;16.08;;;-0.60;99.90;;;;;;4885355;29;20076;-60
2021/12/23 03:36:04;;;;;;;27.02;16.60;;;-0.60;99.90;;;;;;4884859;29;20378;-58
2021/12/23 03:38:31;;;;;;;24.88;16.33;;;-0.60;99.90;;;;;;4883924;29;20233;-59
2021/12/23 03:40:57;;;;;;;27.90;17.08;;;-0.50;99.90;;;;;;4864114;29;20127;-58
2021/12/23 03:43:23;;;;;;;26.20;16.30;;;-0.60;99.90;;;;;;4885165;29;20135;-59
2021/12/23 03:45:50;;;;;;;25.92;16.33;;;-0.60;99.90;;;;;;4881878;29;20052;-59
2021/12/23 03:48:17;;;;;;;29.10;16.52;;;-0.50;99.90;;;;;;4870793;29;21652;-59
2021/12/23 03:50:44;;;;;;;27.10;17.00;;;-0.60;99.90;;;;;;4883319;29;20492;-58
2021/12/23 03:53:09;;;;;;;27.55;16.48;;;-0.50;99.90;;;;;;4885367;29;20071;-59
2021/12/23 03:55:35;;;;;;;24.10;16.27;;;-0.50;99.90;;;;;;4866332;29;20374;-59
2021/12/23 03:58:01;;;;;;;28.10;17.15;;;-0.50;99.90;;;;;;4884672;29;20460;-59
2021/12/23 04:00:28;;;;;;;26.65;17.05;;;-0.50;99.90;;;;;;4871166;29;20534;-60
2021/12/23 04:02:54;;;;;;;26.60;17.13;;;-0.50;99.90;;;;;;4884656;29;20044;-59
2021/12/23 04:05:21;;;;;;;27.55;16.70;;;-0.50;99.90;;;;;;4883704;29;20140;-59
2021/12/23 04:07:47;;;;;;;29.02;17.40;;;-0.50;99.90;;;;;;4885523;29;20164;-59
2021/12/23 04:10:16;;;;;;;26.40;15.85;;;-0.50;99.90;;;;;;4886933;29;20052;-60
2021/12/23 04:12:42;;;;;;;27.08;17.05;;;-0.50;99.90;;;;;;4882324;29;20041;-59
2021/12/23 04:15:09;;;;;;;24.95;16.38;;;-0.50;99.90;;;;;;4882633;29;20071;-58
2021/12/23 04:17:34;;;;;;;25.27;16.35;;;-0.50;99.90;;;;;;4885327;29;20056;-59
2021/12/23 04:20:14;;;;;;;27.30;16.70;;;-0.50;99.90;;;;;;4885053;29;20089;-59
2021/12/23 04:22:41;;;;;;;26.45;16.42;;;-0.50;99.90;;;;;;4871284;29;20052;-59
2021/12/23 04:25:08;;;;;;;25.13;16.15;;;-0.50;99.90;;;;;;4880815;29;20044;-58
2021/12/23 04:27:34;;;;;;;25.33;16.92;;;-0.50;99.90;;;;;;4884612;29;20499;-59
2021/12/23 04:29:59;;;;;;;30.30;17.75;;;-0.50;99.90;;;;;;4883670;29;20308;-59
2021/12/23 04:32:25;;;;;;;29.23;17.13;;;-0.50;99.90;;;;;;4884157;29;20111;-59
2021/12/23 04:34:51;;;;;;;26.00;17.13;;;-0.50;99.90;;;;;;4883108;29;20059;-58
2021/12/23 04:37:17;;;;;;;28.67;16.60;;;-0.50;99.90;;;;;;4885545;29;20056;-59
2021/12/23 04:39:43;;;;;;;29.20;17.60;;;-0.50;99.90;;;;;;4865200;29;20045;-59
2021/12/23 04:42:08;;;;;;;27.67;17.73;;;-0.50;99.90;;;;;;4884659;29;20848;-58
2021/12/23 04:44:34;;;;;;;24.58;17.77;;;-0.50;99.90;;;;;;4868304;29;20527;-59
2021/12/23 04:47:00;;;;;;;26.38;16.48;;;-0.50;99.90;;;;;;4871801;29;20040;-58
2021/12/23 04:49:26;;;;;;;26.13;16.00;;;-0.50;99.90;;;;;;4883689;29;20056;-59
2021/12/23 04:51:52;;;;;;;32.60;17.73;;;-0.40;99.90;;;;;;4855607;29;20112;-58
2021/12/23 04:54:17;;;;;;;28.48;17.25;;;-0.40;99.90;;;;;;4884714;29;20055;-59
2021/12/23 04:56:43;;;;;;;27.33;17.13;;;-0.40;99.90;;;;;;4865239;29;20573;-59
2021/12/23 04:59:09;;;;;;;27.10;16.52;;;-0.40;99.90;;;;;;4883401;29;20495;-59
2021/12/23 05:01:35;;;;;;;27.98;16.70;;;-0.40;99.90;;;;;;4887447;29;20222;-59
2021/12/23 05:04:01;;;;;;;23.80;16.52;;;-0.40;99.90;;;;;;4888507;29;20543;-59
2021/12/23 05:06:26;;;;;;;25.30;16.25;;;-0.40;99.90;;;;;;4874534;29;20056;-57
2021/12/23 05:08:53;;;;;;;27.83;17.13;;;-0.40;99.90;;;;;;4887252;29;20056;-59
2021/12/23 05:11:19;;;;;;;27.50;17.20;;;-0.40;99.90;;;;;;4887370;29;20040;-59
2021/12/23 05:13:47;;;;;;;27.92;16.48;;;-0.40;99.90;;;;;;4886508;29;20166;-59
2021/12/23 05:16:15;;;;;;;24.90;16.38;;;-0.40;99.90;;;;;;4868934;29;20059;-58
2021/12/23 05:18:41;;;;;;;26.65;16.60;;;-0.40;99.90;;;;;;4887328;29;20808;-59
2021/12/23 05:21:07;;;;;;;26.20;16.65;;;-0.30;99.90;;;;;;4886379;29;20116;-59
2021/12/23 05:23:33;;;;;;;28.88;17.80;;;-0.30;99.90;;;;;;4889565;29;20504;-60
2021/12/23 05:25:59;;;;;;;26.70;16.67;;;-0.30;99.90;;;;;;4886122;29;20058;-58
2021/12/23 05:28:24;;;;;;;28.35;17.08;;;-0.30;99.90;;;;;;4889686;29;20326;-59
2021/12/23 05:30:50;;;;;;;30.92;16.38;;;-0.30;99.90;;;;;;4890215;29;20048;-59
2021/12/23 05:33:17;;;;;;;25.63;16.65;;;-0.20;99.90;;;;;;4875024;29;20040;-59
2021/12/23 05:35:43;;;;;;;27.33;17.02;;;-0.30;99.90;;;;;;4882335;29;20396;-59
2021/12/23 05:38:09;;;;;;;27.25;16.10;;;-0.20;99.90;;;;;;4888082;29;20052;-58
2021/12/23 05:40:35;;;;;;;25.70;16.73;;;-0.20;99.90;;;;;;4888707;29;20044;-59
2021/12/23 05:43:02;;;;;;;27.25;15.98;;;-0.20;99.90;;;;;;4857045;29;20053;-58
2021/12/23 05:45:28;;;;;;;27.30;17.52;;;-0.20;99.90;;;;;;4886725;29;20143;-59
2021/12/23 05:47:54;;;;;;;27.48;17.52;;;-0.20;99.90;;;;;;4886872;29;20045;-59
2021/12/23 05:50:23;;;;;;;27.00;17.23;;;-0.20;99.90;;;;;;4869678;29;20047;-59
2021/12/23 05:52:49;;;;;;;26.13;16.48;;;-0.10;99.90;;;;;;4886892;29;20527;-60
2021/12/23 05:55:15;;;;;;;29.35;17.85;;;-0.10;99.90;;;;;;4870187;29;20048;-58
2021/12/23 05:57:42;;;;;;;26.13;17.13;;;-0.20;99.90;;;;;;4888410;29;20041;-57
2021/12/23 06:00:17;;;;;;;24.52;16.48;;;-0.10;99.90;;;;;;4885751;29;20060;-59
2021/12/23 06:02:44;;;;;;;27.35;16.92;;;0.00;99.90;;;;;;4886528;29;20048;-58
2021/12/23 06:05:10;;;;;;;26.17;15.85;;;0.00;99.90;;;;;;4885967;29;20052;-59
2021/12/23 06:07:36;;;;;;;26.27;16.88;;;-0.10;99.90;;;;;;4889459;29;20408;-59
2021/12/23 06:10:03;;;;;;;29.38;16.58;;;0.00;99.90;;;;;;4883437;29;20059;-60
2021/12/23 06:12:28;;;;;;;25.25;16.52;;;0.00;99.90;;;;;;4871938;29;20071;-58
2021/12/23 06:14:54;;;;;;;28.92;16.60;;;0.00;99.90;;;;;;4875730;29;20048;-60
2021/12/23 06:17:20;;;;;;;25.25;16.52;;;0.00;99.90;;;;;;4888062;29;20045;-58
2021/12/23 06:19:46;;;;;;;24.30;15.90;;;0.00;99.90;;;;;;4870094;29;20045;-59
2021/12/23 06:22:13;;;;;;;28.23;17.70;;;0.00;99.90;;;;;;4886494;29;20115;-59
2021/12/23 06:24:43;;;;;;;31.65;17.85;;;0.00;99.90;;;;;;4885782;29;20052;-59
2021/12/23 06:27:09;;;;;;;28.48;18.60;;;0.00;99.90;;;;;;4881118;29;20401;-59
2021/12/23 06:29:35;;;;;;;31.08;18.20;;;0.00;99.90;;;;;;4887931;29;20045;-59
2021/12/23 06:32:01;;;;;;;30.85;18.80;;;0.00;99.90;;;;;;4884357;29;20045;-59
2021/12/23 06:34:27;;;;;;;28.15;18.13;;;0.00;99.90;;;;;;4870257;29;20048;-59
2021/12/23 06:36:52;;;;;;;27.48;18.05;;;0.00;99.90;;;;;;4886200;29;20128;-59
2021/12/23 06:39:18;;;;;;;30.73;18.70;;;0.00;99.90;;;;;;4870116;29;20055;-59
2021/12/23 06:41:44;;;;;;;31.95;18.48;;;0.00;99.90;;;;;;4882285;29;20048;-59
2021/12/23 06:44:10;;;;;;;26.80;17.67;;;0.00;99.90;;;;;;4882326;29;20049;-58
2021/12/23 06:46:36;;;;;;;33.85;20.08;;;0.00;99.90;;;;;;4882329;29;20044;-59
2021/12/23 06:49:02;;;;;;;32.55;18.85;;;0.00;99.90;;;;;;4868618;29;20056;-57
2021/12/23 06:51:28;;;;;;;34.15;19.30;;;0.00;99.90;;;;;;4885091;29;20135;-59
2021/12/23 06:53:55;;;;;;;32.97;19.67;;;0.00;99.90;;;;;;4886395;29;20036;-59
2021/12/23 06:56:21;;;;;;;29.40;18.92;;;0.00;99.90;;;;;;4883882;29;20037;-57
2021/12/23 06:58:49;;;;;;;30.42;19.13;;;0.00;99.90;;;;;;4886433;29;20059;-59
2021/12/23 07:01:17;;;;;;;31.85;20.58;;;0.00;99.90;;;;;;4881388;29;20052;-59
2021/12/23 07:04:06;;;;;;;33.75;20.27;;;0.00;99.90;;;;;;4879913;29;20044;-58
2021/12/23 07:06:35;;;;;;;30.13;18.30;;;0.00;99.90;;;;;;4869177;29;20071;-59
2021/12/23 07:09:04;;;;;;;33.97;20.15;;;0.10;99.90;;;;;;4885620;29;20082;-58
2021/12/23 07:11:34;;;;;;;34.47;20.85;;;0.00;99.90;;;;;;4881694;29;20103;-59
2021/12/23 07:14:00;;;;;;;31.92;20.15;;;0.10;99.90;;;;;;4878546;29;20515;-59
2021/12/23 07:16:26;;;;;;;32.78;20.13;;;0.10;99.90;;;;;;4867601;29;20048;-58
2021/12/23 07:18:51;;;;;;;34.80;22.13;;;0.10;99.90;;;;;;4882104;29;20551;-57
2021/12/23 07:21:17;;;;;;;32.60;20.55;;;0.10;99.90;;;;;;4884146;29;20169;-59
2021/12/23 07:23:43;;;;;;;33.88;20.98;;;0.10;99.90;;;;;;4884749;29;20057;-59
2021/12/23 07:26:09;;;;;;;36.13;21.65;;;0.10;99.90;;;;;;4867983;29;20053;-59
2021/12/23 07:28:35;;;;;;;34.88;21.38;;;0.10;99.90;;;;;;4867541;29;20048;-58
2021/12/23 07:31:01;;;;;;;35.58;22.15;;;0.10;99.90;;;;;;4885088;29;20096;-58
2021/12/23 07:33:26;;;;;;;39.88;23.27;;;0.20;99.90;;;;;;4866417;29;20143;-58
2021/12/23 07:35:52;;;;;;;37.80;23.10;;;0.10;99.90;;;;;;4868339;29;20153;-59
2021/12/23 07:38:18;;;;;;;38.33;23.48;;;0.10;99.90;;;;;;4886084;29;20500;-59
2021/12/23 07:40:44;;;;;;;38.10;24.15;;;0.10;99.90;;;;;;4882908;29;20076;-59
2021/12/23 07:43:31;;;;;;;39.83;24.13;;;0.10;99.90;;;;;;4885150;29;20040;-58
2021/12/23 07:45:56;;;;;;;42.10;23.80;;;0.10;99.90;;;;;;4883343;29;20048;-59
2021/12/23 07:48:22;;;;;;;36.15;22.13;;;0.20;99.90;;;;;;4886664;29;20044;-59
2021/12/23 07:50:48;;;;;;;37.75;23.23;;;0.20;99.90;;;;;;4885187;29;20040;-59
2021/12/23 07:53:14;;;;;;;38.65;23.40;;;0.10;99.90;;;;;;4884336;29;20123;-58
2021/12/23 07:55:42;;;;;;;36.38;22.08;;;0.10;99.90;;;;;;4884014;29;20570;-60
2021/12/23 07:58:09;;;;;;;37.08;23.15;;;0.10;99.90;;;;;;4883118;29;20059;-59
2021/12/23 08:00:35;;;;;;;39.88;23.63;;;0.10;99.90;;;;;;4885433;29;20083;-59
2021/12/23 08:03:01;;;;;;;36.78;22.60;;;0.10;99.90;;;;;;4871834;29;20135;-59
2021/12/23 08:05:27;;;;;;;34.92;22.05;;;0.10;99.90;;;;;;4866305;29;20056;-59
2021/12/23 08:07:56;;;;;;;38.30;22.25;;;0.10;99.90;;;;;;4865296;29;20131;-59
2021/12/23 08:10:22;;;;;;;37.65;23.55;;;0.10;99.90;;;;;;4882025;29;20076;-58
2021/12/23 08:12:48;;;;;;;35.85;22.63;;;0.10;99.90;;;;;;4883858;29;20358;-59
2021/12/23 08:15:14;;;;;;;36.70;22.80;;;0.10;99.90;;;;;;4882208;29;21160;-59
2021/12/23 08:17:40;;;;;;;38.33;22.90;;;0.10;99.90;;;;;;4866712;29;20077;-58
2021/12/23 08:20:06;;;;;;;34.05;22.92;;;0.10;99.90;;;;;;4865846;29;20115;-59
2021/12/23 08:22:33;;;;;;;35.38;22.63;;;0.10;99.90;;;;;;4883452;29;20335;-59
2021/12/23 08:24:59;;;;;;;36.17;22.17;;;0.00;99.90;;;;;;4881306;29;20056;-58
2021/12/23 08:27:28;;;;;;;38.25;23.55;;;0.10;99.90;;;;;;4864997;29;20045;-60
2021/12/23 08:29:54;;;;;;;38.85;22.92;;;0.00;99.90;;;;;;4879640;29;20063;-59
2021/12/23 08:32:21;;;;;;;40.08;22.20;;;0.00;99.90;;;;;;4865919;29;20056;-59
2021/12/23 08:34:47;;;;;;;37.63;23.17;;;0.10;99.90;;;;;;4863610;29;20068;-59
2021/12/23 08:37:13;;;;;;;39.90;22.88;;;0.00;99.90;;;;;;4882929;29;20055;-59
2021/12/23 08:39:41;;;;;;;39.53;22.83;;;0.00;99.90;;;;;;4877579;29;20444;-58
2021/12/23 08:42:09;;;;;;;38.38;24.13;;;0.00;99.90;;;;;;4866311;29;20040;-58
2021/12/23 08:44:35;;;;;;;39.60;25.00;;;0.00;99.90;;;;;;4881492;29;20053;-58
2021/12/23 08:47:02;;;;;;;38.85;23.52;;;0.00;99.90;;;;;;4864046;29;20484;-59
2021/12/23 08:49:28;;;;;;;40.22;25.45;;;0.00;99.90;;;;;;4880186;29;20130;-58
2021/12/23 08:51:54;;;;;;;39.60;23.67;;;0.00;99.90;;;;;;4881847;29;20131;-59
2021/12/23 08:54:20;;;;;;;35.67;23.08;;;0.00;99.90;;;;;;4862605;29;20044;-58
2021/12/23 08:56:46;;;;;;;39.47;23.63;;;0.00;99.90;;;;;;4866502;29;20420;-59
2021/12/23 08:59:12;;;;;;;38.13;23.10;;;0.00;99.90;;;;;;4878346;29;20056;-58
2021/12/23 09:01:42;;;;;;;42.17;25.08;;;0.00;99.90;;;;;;4878671;29;20492;-58
2021/12/23 09:04:08;;;;;;;41.67;25.33;;;0.00;99.90;;;;;;4862012;29;20044;-59
2021/12/23 09:06:34;;;;;;;39.45;23.95;;;0.00;99.90;;;;;;4879354;29;20405;-59
2021/12/23 09:08:59;;;;;;;41.25;24.45;;;0.00;99.90;;;;;;4881533;29;20061;-59
2021/12/23 09:11:26;;;;;;;38.72;24.83;;;0.00;99.90;;;;;;4880162;29;20111;-58
2021/12/23 09:13:52;;;;;;;40.60;24.83;;;0.00;99.90;;;;;;4880091;29;20056;-59
2021/12/23 09:16:18;;;;;;;40.80;24.85;;;0.00;99.90;;;;;;4879884;29;20096;-59
2021/12/23 09:18:44;;;;;;;46.85;25.65;;;0.00;99.90;;;;;;4879643;29;20056;-59
2021/12/23 09:21:12;;;;;;;38.58;24.77;;;0.00;99.90;;;;;;4865172;29;20055;-58
2021/12/23 09:23:39;;;;;;;42.15;26.42;;;0.10;99.90;;;;;;4879821;29;20404;-58
2021/12/23 09:26:09;;;;;;;41.08;24.92;;;0.00;99.90;;;;;;4868073;29;20056;-59
2021/12/23 09:33:47;;;;;;;42.40;24.73;;;0.10;99.90;;;;;;4882711;29;20171;-59
2021/12/23 09:36:14;;;;;;;43.38;26.33;;;0.10;99.90;;;;;;4878410;29;20037;-59
2021/12/23 09:38:40;;;;;;;45.72;26.75;;;0.00;99.90;;;;;;4864531;29;20756;-58
2021/12/23 09:41:13;;;;;;;44.75;27.45;;;0.10;99.90;;;;;;4863454;29;20052;-57
2021/12/23 09:43:40;;;;;;;48.25;27.08;;;0.10;99.90;;;;;;4865876;29;20388;-59
2021/12/23 09:46:09;;;;;;;46.75;28.50;;;0.10;99.90;;;;;;4868111;29;20085;-58
2021/12/23 09:48:37;;;;;;;49.63;28.00;;;0.10;99.90;;;;;;4868989;29;20413;-58
2021/12/23 09:51:05;;;;;;;50.65;28.48;;;0.10;99.90;;;;;;4878338;29;20044;-60
2021/12/23 09:53:33;;;;;;;47.58;28.00;;;0.10;99.90;;;;;;4885237;29;20459;-58
2021/12/23 09:56:00;;;;;;;52.80;31.02;;;0.10;99.90;;;;;;4885245;29;20049;-59
2021/12/23 09:58:26;;;;;;;49.47;29.80;;;0.10;99.90;;;;;;4882655;29;20053;-60
2021/12/23 10:00:53;;;;;;;53.00;30.77;;;0.10;99.90;;;;;;4866611;29;20091;-60
2021/12/23 10:03:22;;;;;;;50.28;29.92;;;0.10;99.90;;;;;;4884678;29;20051;-60
2021/12/23 10:05:48;;;;;;;56.22;31.42;;;0.10;99.90;;;;;;4865625;29;20049;-59
2021/12/23 10:08:15;;;;;;;56.85;31.75;;;0.20;99.90;;;;;;4867043;29;20154;-58
2021/12/23 10:38:18;;;;;;;69.22;35.72;;;0.20;99.90;;;;;;4882474;29;20056;-60
2021/12/23 10:40:47;;;;;;;68.28;34.22;;;0.20;99.90;;;;;;4880827;29;20630;-60
2021/12/23 10:43:29;;;;;;;67.65;34.92;;;0.20;99.90;;;;;;4881415;29;20044;-60
2021/12/23 10:46:00;;;;;;;68.53;35.45;;;0.20;99.90;;;;;;4869588;29;20045;-59
2021/12/23 10:48:30;;;;;;;71.20;36.60;;;0.20;99.90;;;;;;4870366;29;20080;-60
2021/12/23 10:51:02;;;;;;;72.20;37.10;;;0.20;99.90;;;;;;4867564;29;20055;-60
2021/12/23 10:59:09;;;;;;;70.63;35.92;;;0.20;99.90;;;;;;4883275;29;19927;-60
2021/12/23 11:01:57;;;;;;;69.20;36.35;;;0.20;99.90;;;;;;4883076;29;20428;-60
2021/12/23 11:04:23;;;;;;;73.75;35.75;;;0.20;99.90;;;;;;4883230;29;20053;-59
2021/12/23 11:07:02;;;;;;;79.05;37.47;;;0.20;99.90;;;;;;4883598;29;20095;-59
2021/12/23 11:39:26;;;;;;;78.10;37.45;;;0.30;99.90;;;;;;4862339;29;20064;-60
2021/12/23 11:42:03;;;;;;;78.70;38.00;;;0.30;99.90;;;;;;4869426;29;20547;-59
2021/12/23 11:44:31;;;;;;;80.97;37.65;;;0.30;99.90;;;;;;4883656;29;20057;-60
2021/12/23 11:47:06;;;;;;;84.40;38.17;;;0.30;99.90;;;;;;4851278;29;20579;-59
2021/12/23 11:49:34;;;;;;;78.00;37.83;;;0.30;99.90;;;;;;4881330;29;20498;-59
2021/12/23 11:52:01;;;;;;;86.70;40.08;;;0.30;99.90;;;;;;4883816;29;20040;-60
2021/12/23 11:54:31;;;;;;;82.07;39.47;;;0.30;99.90;;;;;;4863455;29;20061;-60
2021/12/23 11:57:15;;;;;;;91.95;40.47;;;0.30;99.90;;;;;;4881669;29;20567;-60
2021/12/23 11:59:45;;;;;;;91.68;39.65;;;0.30;99.90;;;;;;4880468;29;20385;-60
2021/12/23 12:02:15;;;;;;;85.82;39.45;;;0.30;99.90;;;;;;4884361;29;20136;-59
2021/12/23 12:04:41;;;;;;;81.53;37.95;;;0.40;99.90;;;;;;4881328;29;20045;-59
2021/12/23 12:07:16;;;;;;;80.47;38.13;;;0.30;99.90;;;;;;4864371;29;20056;-59
2021/12/23 12:10:05;;;;;;;76.75;38.20;;;0.40;99.90;;;;;;4880740;29;20571;-60
2021/12/23 12:12:33;;;;;;;77.32;37.10;;;0.40;99.90;;;;;;4882334;29;20052;-60
2021/12/23 12:15:00;;;;;;;73.88;36.85;;;0.40;99.90;;;;;;4884241;29;20056;-59
2021/12/23 12:17:26;;;;;;;76.32;37.42;;;0.50;99.90;;;;;;4857215;29;20394;-60
2021/12/23 12:20:09;;;;;;;73.32;36.58;;;0.50;99.90;;;;;;4884163;29;20051;-59
2021/12/23 12:23:06;;;;;;;78.95;36.42;;;0.50;99.90;;;;;;4884657;29;20049;-60
2021/12/23 12:25:38;;;;;;;77.03;36.95;;;0.50;99.90;;;;;;4869305;29;20085;-60
2021/12/23 12:28:04;;;;;;;75.97;37.37;;;0.50;99.90;;;;;;4879871;29;20100;-60
2021/12/23 12:30:43;;;;;;;79.30;37.60;;;0.50;99.90;;;;;;4867579;29;20393;-60
2021/12/23 12:33:32;;;;;;;82.70;38.17;;;0.50;99.90;;;;;;4872559;29;20048;-60
2021/12/23 12:36:00;;;;;;;80.78;38.13;;;0.60;99.90;;;;;;4881704;29;20049;-60
2021/12/23 12:38:29;;;;;;;73.97;37.45;;;0.60;99.90;;;;;;4878024;29;20547;-60
2021/12/23 12:40:57;;;;;;;74.80;37.33;;;0.60;99.90;;;;;;4867890;29;20108;-60
2021/12/23 12:43:41;;;;;;;74.97;38.03;;;0.60;99.90;;;;;;4866378;29;20105;-60
2021/12/23 12:46:07;;;;;;;;;;;0.60;99.90;;;;;;4882350;29;20617;-60
2021/12/23 12:48:54;;;;;;;76.85;36.25;;;0.60;99.90;;;;;;4876838;29;19927;-60
2021/12/23 12:51:23;;;;;;;80.90;38.90;;;0.60;99.90;;;;;;4884837;29;20055;-60
2021/12/23 12:54:06;;;;;;;76.60;37.22;;;0.60;99.90;;;;;;4881819;29;20051;-60
2021/12/23 12:56:43;;;;;;;74.00;37.17;;;0.60;99.90;;;;;;4884042;29;20521;-60
2021/12/23 12:59:10;;;;;;;82.72;38.00;;;0.60;99.90;;;;;;4882584;29;20056;-59
2021/12/23 13:01:49;;;;;;;81.40;38.92;;;0.70;99.90;;;;;;4864079;29;20132;-60
2021/12/23 13:04:31;;;;;;;85.45;39.85;;;0.70;99.90;;;;;;4882496;29;20103;-60
2021/12/23 13:07:11;;;;;;;85.38;40.25;;;0.70;99.90;;;;;;4884711;29;20056;-60
2021/12/23 13:10:03;;;;;;;91.45;41.35;;;0.70;99.90;;;;;;4884530;29;20061;-59
2021/12/23 13:12:50;;;;;;;84.63;39.65;;;0.70;99.90;;;;;;4856787;29;20080;-60
2021/12/23 13:15:18;;;;;;;86.15;38.63;;;0.70;99.90;;;;;;4884898;29;20041;-60
2021/12/23 13:17:47;;;;;;;81.32;38.50;;;0.70;99.90;;;;;;4884666;29;20052;-60
2021/12/23 13:20:15;;;;;;;86.82;39.60;;;0.70;99.90;;;;;;4867190;29;20052;-60
2021/12/23 13:22:43;;;;;;;82.88;38.17;;;0.70;99.90;;;;;;4868321;29;20044;-60
2021/12/23 13:25:09;;;;;;;84.10;37.83;;;0.70;99.90;;;;;;4886132;29;20086;-60
2021/12/23 13:27:40;;;;;;;76.55;36.55;;;0.70;99.90;;;;;;4887895;29;20528;-60
2021/12/23 13:30:10;;;;;;;84.45;37.72;;;0.70;99.90;;;;;;4885368;29;20076;-59
2021/12/23 13:32:36;;;;;;;82.25;36.90;;;0.80;99.90;;;;;;4887832;29;20139;-60
2021/12/23 13:35:14;;;;;;;81.43;37.30;;;0.80;99.90;;;;;;4887797;29;20049;-60
2021/12/23 13:37:44;;;;;;;80.78;38.38;;;0.80;99.90;;;;;;4888908;29;20101;-60
2021/12/23 13:40:12;;;;;;;86.00;38.35;;;0.80;99.90;;;;;;4874684;29;20065;-59
2021/12/23 13:42:41;;;;;;;74.07;36.13;;;0.80;99.90;;;;;;4870043;29;20131;-60
2021/12/23 13:45:08;;;;;;;81.80;37.38;;;0.80;99.90;;;;;;4888730;29;20060;-60
2021/12/23 13:47:35;;;;;;;80.32;38.85;;;0.80;99.90;;;;;;4868463;29;20066;-59
2021/12/23 13:50:01;;;;;;;78.18;36.85;;;0.80;99.90;;;;;;4887298;29;20477;-59
2021/12/23 13:52:34;;;;;;;82.03;38.15;;;0.80;99.90;;;;;;4885847;29;20052;-60